createdAt,value
2018-06-23T00:00:46.095Z,6.70
2018-06-23T00:03:14.027Z,6.70
2018-06-23T00:05:41.898Z,6.70
2018-06-23T00:08:10.074Z,6.60
2018-06-23T00:10:37.980Z,6.60
2018-06-23T00:13:05.915Z,6.70
2018-06-23T00:15:33.784Z,6.80
2018-06-23T00:18:01.744Z,6.90
2018-06-23T00:20:29.682Z,7.00
2018-06-23T00:22:57.683Z,7.10
2018-06-23T00:25:31.331Z,7.10
2018-06-23T00:27:59.184Z,6.90
2018-06-23T00:30:27.242Z,7.00
2018-06-23T00:32:55.150Z,7.00
2018-06-23T00:35:23.156Z,6.90
2018-06-23T00:37:51.048Z,6.90
2018-06-23T00:40:18.959Z,6.90
2018-06-23T00:42:46.910Z,6.70
2018-06-23T00:45:14.924Z,6.60
2018-06-23T00:47:42.830Z,6.60
2018-06-23T00:50:10.778Z,6.70
2018-06-23T00:52:38.657Z,6.80
2018-06-23T00:55:06.634Z,6.90
2018-06-23T00:57:34.504Z,6.90
2018-06-23T01:00:02.471Z,7.10
2018-06-23T01:02:30.423Z,7.10
2018-06-23T01:04:58.446Z,7.20
2018-06-23T01:07:26.358Z,7.40
2018-06-23T01:09:54.282Z,7.40
2018-06-23T01:12:22.257Z,7.50
2018-06-23T01:14:50.240Z,7.50
2018-06-23T01:17:18.204Z,7.40
2018-06-23T01:19:46.168Z,7.40
2018-06-23T01:22:14.065Z,7.30
2018-06-23T01:24:42.091Z,7.30
2018-06-23T01:27:10.029Z,7.30
2018-06-23T01:29:38.002Z,7.30
2018-06-23T01:32:05.956Z,7.40
2018-06-23T01:34:33.938Z,7.40
2018-06-23T01:37:01.888Z,7.30
2018-06-23T01:39:29.943Z,7.40
2018-06-23T01:41:57.864Z,7.40
2018-06-23T01:44:25.884Z,7.40
2018-06-23T01:46:54.125Z,7.50
2018-06-23T01:49:22.119Z,7.50
2018-06-23T01:51:49.997Z,7.40
2018-06-23T01:54:17.899Z,7.40
2018-06-23T01:56:45.772Z,7.30
2018-06-23T01:59:13.764Z,7.40
2018-06-23T02:01:41.681Z,7.40
2018-06-23T02:04:09.614Z,7.50
2018-06-23T02:06:37.485Z,7.50
2018-06-23T02:09:07.686Z,7.40
2018-06-23T02:11:35.582Z,7.30
2018-06-23T02:14:09.099Z,7.20
2018-06-23T02:16:42.480Z,7.10
2018-06-23T02:19:15.862Z,7.10
2018-06-23T02:21:49.272Z,7.10
2018-06-23T02:24:22.874Z,6.90
2018-06-23T02:26:57.437Z,6.70
2018-06-23T02:29:31.065Z,6.60
2018-06-23T02:32:04.455Z,6.50
2018-06-23T02:34:37.963Z,6.40
2018-06-23T02:37:06.003Z,6.40
2018-06-23T02:39:34.057Z,6.30
2018-06-23T02:42:02.080Z,6.20
2018-06-23T02:44:30.124Z,6.20
2018-06-23T02:46:58.053Z,6.30
2018-06-23T02:49:25.949Z,6.20
2018-06-23T02:51:53.870Z,6.20
2018-06-23T02:54:21.852Z,6.40
2018-06-23T02:56:49.771Z,6.40
2018-06-23T02:59:19.254Z,6.30
2018-06-23T03:01:47.992Z,6.30
2018-06-23T03:04:21.290Z,6.30
2018-06-23T03:06:49.202Z,6.30
2018-06-23T03:09:17.528Z,6.40
2018-06-23T03:11:45.523Z,6.20
2018-06-23T03:14:13.564Z,6.20
2018-06-23T03:16:41.492Z,6.30
2018-06-23T03:19:09.463Z,6.30
2018-06-23T03:21:37.369Z,6.20
2018-06-23T03:24:05.374Z,6.10
2018-06-23T03:26:33.289Z,6.00
2018-06-23T03:29:01.384Z,5.90
2018-06-23T03:31:29.267Z,5.90
2018-06-23T03:33:57.311Z,5.90
2018-06-23T03:36:25.207Z,5.90
2018-06-23T03:38:53.266Z,5.90
2018-06-23T03:41:21.166Z,6.00
2018-06-23T03:43:49.439Z,6.10
2018-06-23T03:46:17.297Z,6.10
2018-06-23T03:48:45.504Z,6.10
2018-06-23T03:51:13.430Z,6.40
2018-06-23T03:53:42.390Z,6.50
2018-06-23T03:56:10.357Z,6.60
2018-06-23T03:58:38.289Z,6.70
2018-06-23T04:01:07.956Z,6.80
2018-06-23T04:03:36.233Z,6.80
2018-06-23T04:06:04.206Z,6.70
2018-06-23T04:08:32.717Z,6.80
2018-06-23T04:11:00.630Z,6.90
2018-06-23T04:13:28.583Z,7.00
2018-06-23T04:15:56.490Z,7.20
2018-06-23T04:18:24.388Z,7.30
2018-06-23T04:20:52.322Z,7.40
2018-06-23T04:23:20.351Z,7.60
2018-06-23T04:25:48.269Z,7.90
2018-06-23T04:28:16.343Z,8.10
2018-06-23T04:30:44.258Z,8.30
2018-06-23T04:33:12.238Z,8.50
2018-06-23T04:35:40.136Z,8.70
2018-06-23T04:38:08.178Z,8.70
2018-06-23T04:40:36.124Z,8.70
2018-06-23T04:43:04.382Z,8.90
2018-06-23T04:45:32.276Z,9.10
2018-06-23T04:48:00.240Z,9.20
2018-06-23T04:50:28.303Z,9.40
2018-06-23T04:52:56.447Z,9.50
2018-06-23T04:57:52.113Z,10.00
2018-06-23T05:00:24.591Z,10.20
2018-06-23T05:02:53.041Z,10.40
2018-06-23T05:05:20.953Z,10.60
2018-06-23T05:07:48.953Z,10.70
2018-06-23T05:10:16.868Z,10.80
2018-06-23T05:12:44.810Z,10.90
2018-06-23T05:15:12.693Z,11.00
2018-06-23T05:17:40.639Z,11.30
2018-06-23T05:20:08.537Z,11.40
2018-06-23T05:22:36.548Z,11.50
2018-06-23T05:25:04.743Z,11.80
2018-06-23T05:27:32.790Z,11.90
2018-06-23T05:30:00.658Z,12.10
2018-06-23T05:32:28.596Z,12.20
2018-06-23T05:34:56.476Z,12.40
2018-06-23T05:37:24.445Z,12.50
2018-06-23T05:39:52.337Z,12.80
2018-06-23T05:42:20.300Z,13.00
2018-06-23T05:44:48.175Z,13.30
2018-06-23T05:47:16.197Z,13.70
2018-06-23T05:49:44.112Z,13.90
2018-06-23T05:52:12.062Z,14.10
2018-06-23T05:54:39.930Z,14.40
2018-06-23T05:57:07.914Z,14.70
2018-06-23T05:59:35.817Z,14.80
2018-06-23T06:02:03.911Z,15.00
2018-06-23T06:04:31.802Z,15.30
2018-06-23T06:06:59.766Z,15.40
2018-06-23T06:09:27.690Z,15.60
2018-06-23T06:11:55.674Z,15.60
2018-06-23T06:14:23.669Z,15.90
2018-06-23T06:17:24.056Z,16.00
2018-06-23T06:19:53.694Z,16.20
2018-06-23T06:22:22.520Z,16.30
2018-06-23T06:24:50.441Z,16.30
2018-06-23T06:27:18.367Z,16.40
2018-06-23T06:29:46.264Z,16.50
2018-06-23T06:32:14.193Z,16.70
2018-06-23T06:34:42.117Z,16.80
2018-06-23T06:37:10.032Z,17.00
2018-06-23T06:39:39.001Z,17.10
2018-06-23T06:42:06.876Z,17.20
2018-06-23T06:44:34.854Z,17.40
2018-06-23T06:47:02.727Z,17.70
2018-06-23T06:49:33.352Z,17.60
2018-06-23T06:52:01.284Z,17.70
2018-06-23T06:54:31.356Z,17.90
2018-06-23T06:56:59.310Z,17.90
2018-06-23T06:59:27.275Z,18.10
2018-06-23T07:01:55.194Z,18.10
2018-06-23T07:04:23.198Z,17.90
2018-06-23T07:06:51.115Z,18.10
2018-06-23T07:09:19.106Z,18.00
2018-06-23T07:11:47.077Z,17.50
2018-06-23T07:14:15.094Z,17.80
2018-06-23T07:16:43.045Z,18.20
2018-06-23T07:19:11.003Z,18.30
2018-06-23T07:21:38.951Z,18.50
2018-06-23T07:24:07.144Z,18.60
2018-06-23T07:26:35.749Z,19.00
2018-06-23T07:29:04.653Z,19.10
2018-06-23T07:31:32.751Z,18.60
2018-06-23T07:34:00.858Z,18.60
2018-06-23T07:36:29.097Z,18.70
2018-06-23T07:38:57.143Z,18.90
2018-06-23T07:41:25.098Z,19.30
2018-06-23T07:43:53.133Z,19.40
2018-06-23T07:46:21.123Z,19.50
2018-06-23T07:48:49.063Z,19.40
2018-06-23T07:51:16.991Z,19.20
2018-06-23T07:53:44.974Z,19.20
2018-06-23T07:56:12.980Z,19.20
2018-06-23T07:58:40.975Z,18.90
2018-06-23T08:01:08.893Z,19.00
2018-06-23T08:03:37.464Z,19.10
2018-06-23T08:06:05.736Z,19.40
2018-06-23T08:08:33.728Z,19.90
2018-06-23T08:11:01.647Z,19.80
2018-06-23T08:13:29.604Z,19.60
2018-06-23T08:15:58.572Z,19.50
2018-06-23T08:18:26.541Z,19.80
2018-06-23T08:20:54.435Z,20.00
2018-06-23T08:23:22.389Z,19.70
2018-06-23T08:25:50.345Z,19.60
2018-06-23T08:28:18.340Z,19.80
2018-06-23T08:30:46.334Z,20.10
2018-06-23T08:33:14.398Z,20.30
2018-06-23T08:36:09.016Z,20.40
2018-06-23T08:38:49.693Z,20.80
2018-06-23T08:41:17.712Z,21.00
2018-06-23T08:43:45.688Z,21.20
2018-06-23T08:46:13.659Z,21.30
2018-06-23T08:48:54.036Z,21.30
2018-06-23T08:51:21.942Z,21.00
2018-06-23T08:54:10.670Z,21.00
2018-06-23T08:56:52.184Z,20.90
2018-06-23T08:59:27.412Z,21.10
2018-06-23T09:01:55.380Z,20.80
2018-06-23T09:04:58.130Z,21.40
2018-06-23T09:07:26.068Z,22.20
2018-06-23T09:09:54.074Z,21.70
2018-06-23T09:12:21.922Z,21.30
2018-06-23T09:14:49.711Z,21.90
2018-06-23T09:17:17.733Z,21.80
2018-06-23T09:19:45.566Z,21.60
2018-06-23T09:22:13.379Z,21.10
2018-06-23T09:24:41.183Z,21.00
2018-06-23T09:27:08.942Z,21.00
2018-06-23T09:29:36.810Z,21.40
2018-06-23T09:32:04.641Z,21.60
2018-06-23T09:34:32.511Z,21.70
2018-06-23T09:37:00.278Z,21.70
2018-06-23T09:39:28.075Z,21.50
2018-06-23T09:41:55.872Z,21.40
2018-06-23T09:44:32.143Z,21.20
2018-06-23T09:47:00.034Z,20.80
2018-06-23T09:49:42.467Z,20.80
2018-06-23T09:52:10.462Z,20.90
2018-06-23T09:54:38.766Z,20.80
2018-06-23T09:57:07.277Z,21.00
2018-06-23T09:59:39.120Z,21.20
2018-06-23T10:02:07.201Z,21.50
2018-06-23T10:04:35.140Z,21.80
2018-06-23T10:07:03.338Z,21.80
2018-06-23T10:09:31.279Z,21.60
2018-06-23T10:11:59.271Z,21.40
2018-06-23T10:14:27.176Z,21.60
2018-06-23T10:16:55.246Z,21.80
2018-06-23T10:19:29.590Z,21.60
2018-06-23T10:22:03.951Z,21.90
2018-06-23T10:24:46.911Z,22.40
2018-06-23T10:27:15.243Z,22.80
2018-06-23T10:29:43.218Z,22.60
2018-06-23T10:32:11.146Z,22.60
2018-06-23T10:34:39.208Z,22.70
2018-06-23T10:37:07.128Z,23.10
2018-06-23T10:39:36.329Z,23.00
2018-06-23T10:42:16.992Z,22.50
2018-06-23T10:44:45.003Z,22.40
2018-06-23T10:47:12.939Z,23.10
2018-06-23T10:49:40.997Z,23.60
2018-06-23T10:52:09.036Z,23.90
2018-06-23T10:54:57.964Z,23.30
2018-06-23T10:57:26.141Z,22.80
2018-06-23T10:59:54.037Z,23.30
2018-06-23T11:04:50.834Z,24.00
2018-06-23T11:07:18.755Z,24.00
2018-06-23T11:09:46.571Z,24.20
2018-06-23T11:12:14.519Z,24.40
2018-06-23T11:14:42.280Z,24.20
2018-06-23T11:17:10.275Z,23.60
2018-06-23T11:19:38.086Z,23.60
2018-06-23T11:22:06.097Z,24.30
2018-06-23T11:24:33.997Z,25.00
2018-06-23T11:27:01.948Z,25.60
2018-06-23T11:29:29.792Z,25.40
2018-06-23T11:31:57.623Z,25.80
2018-06-23T11:34:25.446Z,25.10
2018-06-23T11:36:53.257Z,24.70
2018-06-23T11:39:21.229Z,24.70
2018-06-23T11:41:48.958Z,24.50
2018-06-23T11:44:16.979Z,24.50
2018-06-23T11:46:44.720Z,24.70
2018-06-23T11:49:12.785Z,25.50
2018-06-23T11:51:40.556Z,26.10
2018-06-23T11:54:16.418Z,26.30
2018-06-23T11:56:44.313Z,26.60
2018-06-23T11:59:12.264Z,26.80
2018-06-23T12:01:40.278Z,26.80
2018-06-23T12:04:08.189Z,26.80
2018-06-23T12:06:36.147Z,26.80
2018-06-23T12:09:17.454Z,26.40
2018-06-23T12:11:45.258Z,26.30
2018-06-23T12:14:13.193Z,26.70
2018-06-23T12:16:57.172Z,26.80
2018-06-23T12:19:25.029Z,27.10
2018-06-23T12:21:52.918Z,27.20
2018-06-23T12:24:20.825Z,27.50
2018-06-23T12:26:48.672Z,27.30
2018-06-23T12:29:16.482Z,26.80
2018-06-23T12:31:44.342Z,26.90
2018-06-23T12:34:12.142Z,27.10
2018-06-23T12:36:40.035Z,27.40
2018-06-23T12:39:09.049Z,27.60
2018-06-23T12:41:36.990Z,27.80
2018-06-23T12:44:04.867Z,27.60
2018-06-23T12:46:32.755Z,27.10
2018-06-23T12:49:00.505Z,27.00
2018-06-23T12:51:28.333Z,27.30
2018-06-23T12:53:56.207Z,26.90
2018-06-23T12:56:23.995Z,27.30
2018-06-23T12:58:51.772Z,27.90
2018-06-23T13:01:27.091Z,28.40
2018-06-23T13:03:55.050Z,28.30
2018-06-23T13:06:22.943Z,27.70
2018-06-23T13:08:50.844Z,27.50
2018-06-23T13:11:32.046Z,27.30
2018-06-23T13:13:59.944Z,27.00
2018-06-23T13:16:27.814Z,27.60
2018-06-23T13:19:09.427Z,28.20
2018-06-23T13:21:37.295Z,28.50
2018-06-23T13:24:05.183Z,29.10
2018-06-23T13:26:53.538Z,29.30
2018-06-23T13:29:21.427Z,29.40
2018-06-23T13:31:58.996Z,29.60
2018-06-23T13:34:26.901Z,28.80
2018-06-23T13:36:54.492Z,28.20
2018-06-23T13:39:22.368Z,27.50
2018-06-23T13:41:50.114Z,26.70
2018-06-23T13:44:17.936Z,26.30
2018-06-23T13:46:45.719Z,26.40
2018-06-23T13:49:13.583Z,27.00
2018-06-23T13:51:41.324Z,26.90
2018-06-23T13:54:09.216Z,26.00
2018-06-23T13:56:37.014Z,25.50
2018-06-23T13:59:04.842Z,25.40
2018-06-23T14:01:32.595Z,25.80
2018-06-23T14:04:01.474Z,26.00
2018-06-23T14:06:39.778Z,25.80
2018-06-23T14:09:09.205Z,25.80
2018-06-23T14:14:12.995Z,27.10
2018-06-23T14:16:40.902Z,27.70
2018-06-23T14:19:08.949Z,28.10
2018-06-23T14:21:49.825Z,28.60
2018-06-23T14:24:17.863Z,27.70
2018-06-23T14:27:02.777Z,26.80
2018-06-23T14:29:30.696Z,26.30
2018-06-23T14:31:58.862Z,25.00
2018-06-23T14:34:26.451Z,24.40
2018-06-23T14:36:54.353Z,24.30
2018-06-23T14:39:22.142Z,24.10
2018-06-23T14:41:49.954Z,24.80
2018-06-23T14:44:17.769Z,25.60
2018-06-23T14:46:45.535Z,26.30
2018-06-23T14:49:13.305Z,26.40
2018-06-23T14:51:41.104Z,27.10
2018-06-23T14:54:08.903Z,27.60
2018-06-23T14:56:36.894Z,27.80
2018-06-23T14:59:04.698Z,26.30
2018-06-23T15:01:32.605Z,25.00
2018-06-23T15:04:00.476Z,23.90
2018-06-23T15:06:28.331Z,23.10
2018-06-23T15:09:06.855Z,23.30
2018-06-23T15:11:53.562Z,24.00
2018-06-23T15:14:21.487Z,24.30
2018-06-23T15:16:49.403Z,24.30
2018-06-23T15:19:17.315Z,24.20
2018-06-23T15:22:00.638Z,24.80
2018-06-23T15:24:28.452Z,24.70
2018-06-23T15:26:56.345Z,25.50
2018-06-23T15:29:24.128Z,25.80
2018-06-23T15:31:51.939Z,25.40
2018-06-23T15:34:19.714Z,25.40
2018-06-23T15:36:47.654Z,25.00
2018-06-23T15:39:15.428Z,25.20
2018-06-23T15:41:43.269Z,25.40
2018-06-23T15:44:11.039Z,25.70
2018-06-23T15:46:38.873Z,25.60
2018-06-23T15:49:07.602Z,25.30
2018-06-23T15:51:35.579Z,25.70
2018-06-23T15:54:03.607Z,26.00
2018-06-23T15:56:31.469Z,25.30
2018-06-23T15:58:59.300Z,24.20
2018-06-23T16:01:27.121Z,23.50
2018-06-23T16:03:55.076Z,23.30
2018-06-23T16:06:22.883Z,23.80
2018-06-23T16:08:50.786Z,24.70
2018-06-23T16:11:18.537Z,25.40
2018-06-23T16:13:46.386Z,25.90
2018-06-23T16:16:14.319Z,25.60
2018-06-23T16:18:42.323Z,24.90
2018-06-23T16:21:10.214Z,24.10
2018-06-23T16:23:38.266Z,24.10
2018-06-23T16:26:06.196Z,24.00
2018-06-23T16:28:34.280Z,23.70
2018-06-23T16:31:02.155Z,23.20
2018-06-23T16:33:30.156Z,23.00
2018-06-23T16:35:58.070Z,22.80
2018-06-23T16:38:26.111Z,23.10
2018-06-23T16:40:54.171Z,23.40
2018-06-23T16:43:22.197Z,23.60
2018-06-23T16:46:04.327Z,24.50
2018-06-23T16:48:46.714Z,24.60
2018-06-23T16:51:14.648Z,23.80
2018-06-23T16:53:42.550Z,23.90
2018-06-23T16:56:10.472Z,23.60
2018-06-23T16:58:38.404Z,23.50
2018-06-23T17:01:06.328Z,23.30
2018-06-23T17:03:34.309Z,23.00
2018-06-23T17:06:02.204Z,22.20
2018-06-23T17:08:30.068Z,21.90
2018-06-23T17:10:57.966Z,22.20
2018-06-23T17:13:38.629Z,22.20
2018-06-23T17:16:06.472Z,22.20
2018-06-23T17:21:12.631Z,21.80
2018-06-23T17:23:40.512Z,21.40
2018-06-23T17:26:08.433Z,21.00
2018-06-23T17:28:49.463Z,20.30
2018-06-23T17:31:30.135Z,19.60
2018-06-23T17:34:05.924Z,19.50
2018-06-23T17:36:33.798Z,19.30
2018-06-23T17:39:10.194Z,19.20
2018-06-23T17:41:38.258Z,19.00
2018-06-23T17:44:06.197Z,19.00
2018-06-23T17:46:42.415Z,19.00
2018-06-23T17:49:37.918Z,19.00
2018-06-23T17:52:05.831Z,18.90
2018-06-23T17:54:33.719Z,18.80
2018-06-23T17:57:01.639Z,18.70
2018-06-23T17:59:53.806Z,18.50
2018-06-23T18:02:21.529Z,18.40
2018-06-23T18:04:49.368Z,18.40
2018-06-23T18:07:17.237Z,18.40
2018-06-23T18:09:45.024Z,18.40
2018-06-23T18:12:12.975Z,18.40
2018-06-23T18:14:40.704Z,18.50
2018-06-23T18:17:08.623Z,18.40
2018-06-23T18:19:36.435Z,18.50
2018-06-23T18:22:05.250Z,18.60
2018-06-23T18:24:33.152Z,18.90
2018-06-23T18:27:02.031Z,19.30
2018-06-23T18:29:30.021Z,19.40
2018-06-23T18:31:57.970Z,18.90
2018-06-23T18:34:25.887Z,18.50
2018-06-23T18:36:53.764Z,18.00
2018-06-23T18:39:21.682Z,17.70
2018-06-23T18:41:50.691Z,17.50
2018-06-23T18:44:18.645Z,17.30
2018-06-23T18:49:44.322Z,17.00
2018-06-23T18:52:12.151Z,16.90
2018-06-23T18:54:39.903Z,16.80
2018-06-23T18:57:07.704Z,16.80
2018-06-23T18:59:35.415Z,16.70
2018-06-23T19:02:03.301Z,16.60
2018-06-23T19:04:31.040Z,16.60
2018-06-23T19:06:58.891Z,16.50
2018-06-23T19:09:26.805Z,16.40
2018-06-23T19:11:54.554Z,16.40
2018-06-23T19:14:22.306Z,16.30
2018-06-23T19:16:50.308Z,16.20
2018-06-23T19:19:18.079Z,16.10
2018-06-23T19:21:45.910Z,16.10
2018-06-23T19:24:13.739Z,16.00
2018-06-23T19:26:41.564Z,16.00
2018-06-23T19:29:09.487Z,16.00
2018-06-23T19:31:37.464Z,15.90
2018-06-23T19:34:05.628Z,15.90
2018-06-23T19:36:33.584Z,15.90
2018-06-23T19:39:01.696Z,15.80
2018-06-23T19:41:33.459Z,15.80
2018-06-23T19:44:01.519Z,15.70
2018-06-23T19:46:36.500Z,15.60
2018-06-23T19:49:04.422Z,15.40
2018-06-23T19:51:32.316Z,15.20
2018-06-23T19:54:00.190Z,15.00
2018-06-23T19:56:28.024Z,14.70
2018-06-23T19:58:55.856Z,14.60
2018-06-23T20:01:23.762Z,14.50
2018-06-23T20:03:51.546Z,14.40
2018-06-23T20:06:19.490Z,14.30
2018-06-23T20:08:47.279Z,14.40
2018-06-23T20:11:15.388Z,14.40
2018-06-23T20:13:43.216Z,14.40
2018-06-23T20:16:11.185Z,14.30
2018-06-23T20:18:38.989Z,14.20
2018-06-23T20:21:06.864Z,14.20
2018-06-23T20:23:34.930Z,14.40
2018-06-23T20:26:02.759Z,14.40
2018-06-23T20:28:30.726Z,14.40
2018-06-23T20:30:58.568Z,14.50
2018-06-23T20:33:37.066Z,14.50
2018-06-23T20:36:05.078Z,14.50
2018-06-23T20:38:33.114Z,14.50
2018-06-23T20:41:01.107Z,14.50
2018-06-23T20:43:28.983Z,14.40
2018-06-23T20:45:56.962Z,14.40
2018-06-23T20:48:24.913Z,14.30
2018-06-23T20:50:52.778Z,14.20
2018-06-23T20:53:46.652Z,14.10
2018-06-23T20:56:14.665Z,14.10
2018-06-23T20:58:56.994Z,14.00
2018-06-23T21:01:24.990Z,14.00
2018-06-23T21:04:07.007Z,13.90
2018-06-23T21:06:34.883Z,13.90
2018-06-23T21:09:03.422Z,13.80
2018-06-23T21:11:57.758Z,13.70
2018-06-23T21:14:27.086Z,13.60
2018-06-23T21:16:55.095Z,13.50
2018-06-23T21:19:25.025Z,13.30
2018-06-23T21:22:00.738Z,13.10
2018-06-23T21:24:28.660Z,13.00
2018-06-23T21:26:56.631Z,12.90
2018-06-23T21:29:48.501Z,12.90
2018-06-23T21:32:16.337Z,12.80
2018-06-23T21:34:44.166Z,12.70
2018-06-23T21:39:37.504Z,12.50
2018-06-23T21:42:05.492Z,12.50
2018-06-23T21:44:33.410Z,12.30
2018-06-23T21:47:01.402Z,12.20
2018-06-23T21:49:29.286Z,12.20
2018-06-23T21:51:58.283Z,12.20
2018-06-23T21:54:26.185Z,12.10
2018-06-23T21:56:54.168Z,12.10
2018-06-23T21:59:22.040Z,12.20
2018-06-23T22:01:49.957Z,12.20
2018-06-23T22:04:17.848Z,12.30
2018-06-23T22:06:45.791Z,12.40
2018-06-23T22:09:13.588Z,12.40
2018-06-23T22:11:41.428Z,12.50
2018-06-23T22:14:09.250Z,12.40
2018-06-23T22:16:37.301Z,12.40
2018-06-23T22:19:05.037Z,12.30
2018-06-23T22:21:32.888Z,12.30
2018-06-23T22:24:00.690Z,12.40
2018-06-23T22:26:28.510Z,12.40
2018-06-23T22:28:56.271Z,12.30
2018-06-23T22:31:24.141Z,12.10
2018-06-23T22:36:25.842Z,12.10
2018-06-23T22:38:53.677Z,12.00
2018-06-23T22:41:21.515Z,12.00
2018-06-23T22:43:49.277Z,11.90
2018-06-23T22:46:17.224Z,12.10
2018-06-23T22:48:45.100Z,12.00
2018-06-23T22:51:12.893Z,12.10
2018-06-23T22:53:40.751Z,12.10
2018-06-23T22:56:08.632Z,12.10
2018-06-23T22:58:36.453Z,12.20
2018-06-23T23:01:04.416Z,12.20
2018-06-23T23:03:32.184Z,12.30
2018-06-23T23:06:00.027Z,12.40
2018-06-23T23:08:27.817Z,12.40
2018-06-23T23:10:55.574Z,12.40
2018-06-23T23:13:58.968Z,12.30
2018-06-23T23:16:26.813Z,12.10
2018-06-23T23:18:54.718Z,12.00
2018-06-23T23:21:22.625Z,11.90
2018-06-23T23:23:50.573Z,11.80
2018-06-23T23:26:18.462Z,11.70
2018-06-23T23:28:46.252Z,11.70
2018-06-23T23:31:14.087Z,11.70
2018-06-23T23:33:41.849Z,11.80
2018-06-23T23:36:09.718Z,11.90
2018-06-23T23:38:37.450Z,12.00
2018-06-23T23:41:05.345Z,12.10
2018-06-23T23:43:33.120Z,11.90
2018-06-23T23:46:00.960Z,11.90
2018-06-23T23:48:29.265Z,12.00
2018-06-23T23:50:57.140Z,12.00
2018-06-23T23:53:24.939Z,12.00
2018-06-23T23:55:52.791Z,12.00
2018-06-23T23:58:24.684Z,12.00
